sensor_id;sensor_type;location;lat;lon;timestamp;temperature;humidity
5009;DHT22;2523;51.058;6.922;2022-07-29T00:01:15;20.40;56.20
5009;DHT22;2523;51.058;6.922;2022-07-29T00:03:41;20.40;59.10
5009;DHT22;2523;51.058;6.922;2022-07-29T00:06:06;20.40;64.00
5009;DHT22;2523;51.058;6.922;2022-07-29T00:08:32;20.40;66.00
5009;DHT22;2523;51.058;6.922;2022-07-29T00:10:57;20.40;63.00
5009;DHT22;2523;51.058;6.922;2022-07-29T00:13:23;20.40;66.40
5009;DHT22;2523;51.058;6.922;2022-07-29T00:15:48;20.40;66.50
5009;DHT22;2523;51.058;6.922;2022-07-29T00:18:14;20.40;68.20
5009;DHT22;2523;51.058;6.922;2022-07-29T00:20:39;20.40;71.10
5009;DHT22;2523;51.058;6.922;2022-07-29T00:23:05;20.40;71.80
5009;DHT22;2523;51.058;6.922;2022-07-29T00:25:31;20.40;73.50
5009;DHT22;2523;51.058;6.922;2022-07-29T00:27:56;20.40;72.70
5009;DHT22;2523;51.058;6.922;2022-07-29T00:30:23;20.40;73.30
5009;DHT22;2523;51.058;6.922;2022-07-29T00:32:48;20.40;69.90
5009;DHT22;2523;51.058;6.922;2022-07-29T00:35:14;20.40;68.30
5009;DHT22;2523;51.058;6.922;2022-07-29T00:37:58;20.40;74.70
5009;DHT22;2523;51.058;6.922;2022-07-29T00:40:23;20.40;83.50
5009;DHT22;2523;51.058;6.922;2022-07-29T00:42:50;20.30;86.40
5009;DHT22;2523;51.058;6.922;2022-07-29T00:45:17;20.30;85.80
5009;DHT22;2523;51.058;6.922;2022-07-29T00:47:43;20.30;78.90
5009;DHT22;2523;51.058;6.922;2022-07-29T00:50:11;20.30;83.10
5009;DHT22;2523;51.058;6.922;2022-07-29T00:52:38;20.40;84.20
5009;DHT22;2523;51.058;6.922;2022-07-29T00:55:05;20.30;89.70
5009;DHT22;2523;51.058;6.922;2022-07-29T00:57:32;20.30;89.00
5009;DHT22;2523;51.058;6.922;2022-07-29T00:59:57;20.30;89.00
5009;DHT22;2523;51.058;6.922;2022-07-29T01:02:23;20.30;91.10
5009;DHT22;2523;51.058;6.922;2022-07-29T01:04:49;20.30;89.60
5009;DHT22;2523;51.058;6.922;2022-07-29T01:07:15;20.20;91.50
5009;DHT22;2523;51.058;6.922;2022-07-29T01:09:42;20.20;99.90
5009;DHT22;2523;51.058;6.922;2022-07-29T01:12:09;20.20;96.40
5009;DHT22;2523;51.058;6.922;2022-07-29T01:14:36;20.20;94.60
5009;DHT22;2523;51.058;6.922;2022-07-29T01:17:10;20.20;97.40
5009;DHT22;2523;51.058;6.922;2022-07-29T01:19:58;20.10;98.10
5009;DHT22;2523;51.058;6.922;2022-07-29T01:25:18;20.10;94.30
5009;DHT22;2523;51.058;6.922;2022-07-29T01:30:25;20.00;99.90
5009;DHT22;2523;51.058;6.922;2022-07-29T01:32:56;20.00;99.90
5009;DHT22;2523;51.058;6.922;2022-07-29T01:35:42;20.00;99.90
5009;DHT22;2523;51.058;6.922;2022-07-29T01:38:11;20.00;99.90
5009;DHT22;2523;51.058;6.922;2022-07-29T01:40:52;20.00;99.80
5009;DHT22;2523;51.058;6.922;2022-07-29T01:43:23;20.10;99.90
5009;DHT22;2523;51.058;6.922;2022-07-29T01:46:04;20.10;99.90
5009;DHT22;2523;51.058;6.922;2022-07-29T01:48:38;20.10;99.80
5009;DHT22;2523;51.058;6.922;2022-07-29T01:51:14;20.00;99.90
5009;DHT22;2523;51.058;6.922;2022-07-29T01:54:06;20.00;99.90
5009;DHT22;2523;51.058;6.922;2022-07-29T01:56:35;20.00;99.90
5009;DHT22;2523;51.058;6.922;2022-07-29T01:59:03;20.00;99.90
5009;DHT22;2523;51.058;6.922;2022-07-29T02:01:31;20.00;99.90
5009;DHT22;2523;51.058;6.922;2022-07-29T02:03:59;19.90;99.90
5009;DHT22;2523;51.058;6.922;2022-07-29T02:06:27;19.90;99.90
5009;DHT22;2523;51.058;6.922;2022-07-29T02:08:56;19.80;99.90
5009;DHT22;2523;51.058;6.922;2022-07-29T02:11:23;19.90;99.90
5009;DHT22;2523;51.058;6.922;2022-07-29T02:13:52;19.90;99.90
5009;DHT22;2523;51.058;6.922;2022-07-29T02:16:21;19.90;99.90
5009;DHT22;2523;51.058;6.922;2022-07-29T02:18:50;19.80;99.90
5009;DHT22;2523;51.058;6.922;2022-07-29T02:21:22;19.80;99.90
5009;DHT22;2523;51.058;6.922;2022-07-29T02:23:51;19.80;99.90
5009;DHT22;2523;51.058;6.922;2022-07-29T02:26:19;19.90;99.90
5009;DHT22;2523;51.058;6.922;2022-07-29T02:28:46;19.90;99.90
5009;DHT22;2523;51.058;6.922;2022-07-29T02:31:12;19.90;99.90
5009;DHT22;2523;51.058;6.922;2022-07-29T02:33:40;19.90;99.90
5009;DHT22;2523;51.058;6.922;2022-07-29T02:36:06;20.00;99.90
5009;DHT22;2523;51.058;6.922;2022-07-29T02:38:34;19.90;99.90
5009;DHT22;2523;51.058;6.922;2022-07-29T02:41:18;20.00;99.90
5009;DHT22;2523;51.058;6.922;2022-07-29T02:43:47;19.90;99.90
5009;DHT22;2523;51.058;6.922;2022-07-29T02:46:18;19.90;99.90
5009;DHT22;2523;51.058;6.922;2022-07-29T02:49:12;20.00;99.90
5009;DHT22;2523;51.058;6.922;2022-07-29T02:51:45;20.00;99.90
5009;DHT22;2523;51.058;6.922;2022-07-29T02:54:19;20.00;99.90
5009;DHT22;2523;51.058;6.922;2022-07-29T02:56:46;19.90;99.90
5009;DHT22;2523;51.058;6.922;2022-07-29T02:59:14;19.90;99.90
5009;DHT22;2523;51.058;6.922;2022-07-29T03:01:43;19.90;99.90
5009;DHT22;2523;51.058;6.922;2022-07-29T03:04:09;19.80;99.90
5009;DHT22;2523;51.058;6.922;2022-07-29T03:06:37;19.80;99.90
5009;DHT22;2523;51.058;6.922;2022-07-29T03:09:04;19.80;99.90
5009;DHT22;2523;51.058;6.922;2022-07-29T03:11:30;19.80;99.90
5009;DHT22;2523;51.058;6.922;2022-07-29T03:13:56;19.80;99.90
5009;DHT22;2523;51.058;6.922;2022-07-29T03:16:22;19.90;99.90
5009;DHT22;2523;51.058;6.922;2022-07-29T03:18:49;19.80;99.90
5009;DHT22;2523;51.058;6.922;2022-07-29T03:21:15;19.80;99.90
5009;DHT22;2523;51.058;6.922;2022-07-29T03:23:44;19.80;99.90
5009;DHT22;2523;51.058;6.922;2022-07-29T03:26:11;19.80;99.90
5009;DHT22;2523;51.058;6.922;2022-07-29T03:28:37;19.80;99.90
5009;DHT22;2523;51.058;6.922;2022-07-29T03:31:02;19.70;99.90
5009;DHT22;2523;51.058;6.922;2022-07-29T03:33:28;19.70;99.90
5009;DHT22;2523;51.058;6.922;2022-07-29T03:35:55;19.70;96.40
5009;DHT22;2523;51.058;6.922;2022-07-29T03:38:24;19.60;97.10
5009;DHT22;2523;51.058;6.922;2022-07-29T03:40:54;19.60;95.60
5009;DHT22;2523;51.058;6.922;2022-07-29T03:43:22;19.60;95.90
5009;DHT22;2523;51.058;6.922;2022-07-29T03:45:51;19.60;95.70
5009;DHT22;2523;51.058;6.922;2022-07-29T03:48:20;19.60;95.70
5009;DHT22;2523;51.058;6.922;2022-07-29T03:50:46;19.50;96.30
5009;DHT22;2523;51.058;6.922;2022-07-29T03:53:12;19.50;95.60
5009;DHT22;2523;51.058;6.922;2022-07-29T03:55:43;19.50;97.90
5009;DHT22;2523;51.058;6.922;2022-07-29T03:58:10;19.50;96.30
5009;DHT22;2523;51.058;6.922;2022-07-29T04:00:37;19.40;95.30
5009;DHT22;2523;51.058;6.922;2022-07-29T04:03:04;19.40;96.20
5009;DHT22;2523;51.058;6.922;2022-07-29T04:05:30;19.40;96.40
5009;DHT22;2523;51.058;6.922;2022-07-29T04:07:55;19.30;97.80
5009;DHT22;2523;51.058;6.922;2022-07-29T04:10:21;19.30;99.90
5009;DHT22;2523;51.058;6.922;2022-07-29T04:12:48;19.30;99.90
5009;DHT22;2523;51.058;6.922;2022-07-29T04:15:14;19.20;99.90
5009;DHT22;2523;51.058;6.922;2022-07-29T04:17:40;19.10;99.90
5009;DHT22;2523;51.058;6.922;2022-07-29T04:20:05;19.10;99.90
5009;DHT22;2523;51.058;6.922;2022-07-29T04:22:31;19.10;99.90
5009;DHT22;2523;51.058;6.922;2022-07-29T04:24:57;19.10;99.90
5009;DHT22;2523;51.058;6.922;2022-07-29T04:27:22;19.00;99.90
5009;DHT22;2523;51.058;6.922;2022-07-29T04:29:48;19.00;99.90
5009;DHT22;2523;51.058;6.922;2022-07-29T04:32:13;18.90;99.90
5009;DHT22;2523;51.058;6.922;2022-07-29T04:34:39;18.90;99.90
5009;DHT22;2523;51.058;6.922;2022-07-29T04:37:04;18.90;99.90
5009;DHT22;2523;51.058;6.922;2022-07-29T04:39:30;18.90;99.90
5009;DHT22;2523;51.058;6.922;2022-07-29T04:41:55;18.90;99.90
5009;DHT22;2523;51.058;6.922;2022-07-29T04:44:21;18.90;99.90
5009;DHT22;2523;51.058;6.922;2022-07-29T04:46:47;18.90;99.90
5009;DHT22;2523;51.058;6.922;2022-07-29T04:49:13;18.90;99.90
5009;DHT22;2523;51.058;6.922;2022-07-29T04:51:38;18.80;99.90
5009;DHT22;2523;51.058;6.922;2022-07-29T04:54:04;18.90;99.90
5009;DHT22;2523;51.058;6.922;2022-07-29T04:56:29;18.80;99.90
5009;DHT22;2523;51.058;6.922;2022-07-29T04:58:55;18.80;99.90
5009;DHT22;2523;51.058;6.922;2022-07-29T05:01:20;18.90;99.90
5009;DHT22;2523;51.058;6.922;2022-07-29T05:03:46;18.90;99.90
5009;DHT22;2523;51.058;6.922;2022-07-29T05:06:11;18.90;99.90
5009;DHT22;2523;51.058;6.922;2022-07-29T05:08:37;19.00;99.90
5009;DHT22;2523;51.058;6.922;2022-07-29T05:11:03;19.10;99.90
5009;DHT22;2523;51.058;6.922;2022-07-29T05:13:29;19.10;99.90
5009;DHT22;2523;51.058;6.922;2022-07-29T05:15:55;19.20;99.90
5009;DHT22;2523;51.058;6.922;2022-07-29T05:18:20;19.20;99.90
5009;DHT22;2523;51.058;6.922;2022-07-29T05:20:46;19.20;99.90
5009;DHT22;2523;51.058;6.922;2022-07-29T05:23:11;19.10;99.90
5009;DHT22;2523;51.058;6.922;2022-07-29T05:25:40;19.20;99.90
5009;DHT22;2523;51.058;6.922;2022-07-29T05:28:05;19.10;99.90
5009;DHT22;2523;51.058;6.922;2022-07-29T05:30:31;19.20;99.90
5009;DHT22;2523;51.058;6.922;2022-07-29T05:32:57;19.20;99.90
5009;DHT22;2523;51.058;6.922;2022-07-29T05:35:22;19.20;99.90
5009;DHT22;2523;51.058;6.922;2022-07-29T05:37:48;19.20;99.40
5009;DHT22;2523;51.058;6.922;2022-07-29T05:40:13;19.20;99.90
5009;DHT22;2523;51.058;6.922;2022-07-29T05:42:39;19.20;99.10
5009;DHT22;2523;51.058;6.922;2022-07-29T05:45:05;19.30;99.90
5009;DHT22;2523;51.058;6.922;2022-07-29T05:47:30;19.30;99.20
5009;DHT22;2523;51.058;6.922;2022-07-29T05:49:56;19.20;98.90
5009;DHT22;2523;51.058;6.922;2022-07-29T05:52:22;19.30;99.80
5009;DHT22;2523;51.058;6.922;2022-07-29T05:54:48;19.30;99.90
5009;DHT22;2523;51.058;6.922;2022-07-29T05:59:42;19.40;98.60
5009;DHT22;2523;51.058;6.922;2022-07-29T06:02:08;19.40;99.90
5009;DHT22;2523;51.058;6.922;2022-07-29T06:04:33;19.40;99.90
5009;DHT22;2523;51.058;6.922;2022-07-29T06:07:00;19.50;99.50
5009;DHT22;2523;51.058;6.922;2022-07-29T06:09:26;19.60;99.90
5009;DHT22;2523;51.058;6.922;2022-07-29T06:11:52;19.60;99.90
5009;DHT22;2523;51.058;6.922;2022-07-29T06:14:18;19.60;99.90
5009;DHT22;2523;51.058;6.922;2022-07-29T06:16:44;19.60;99.90
5009;DHT22;2523;51.058;6.922;2022-07-29T06:19:10;19.70;99.60
5009;DHT22;2523;51.058;6.922;2022-07-29T06:21:35;19.80;99.90
5009;DHT22;2523;51.058;6.922;2022-07-29T06:24:01;19.80;99.40
5009;DHT22;2523;51.058;6.922;2022-07-29T06:26:27;19.90;99.90
5009;DHT22;2523;51.058;6.922;2022-07-29T06:28:52;19.80;99.90
5009;DHT22;2523;51.058;6.922;2022-07-29T06:31:18;19.70;99.90
5009;DHT22;2523;51.058;6.922;2022-07-29T06:33:43;19.70;99.90
5009;DHT22;2523;51.058;6.922;2022-07-29T06:36:09;19.70;99.90
5009;DHT22;2523;51.058;6.922;2022-07-29T06:38:35;19.60;99.90
5009;DHT22;2523;51.058;6.922;2022-07-29T06:41:01;19.50;99.90
5009;DHT22;2523;51.058;6.922;2022-07-29T06:43:38;19.60;99.90
5009;DHT22;2523;51.058;6.922;2022-07-29T06:46:08;19.60;99.90
5009;DHT22;2523;51.058;6.922;2022-07-29T06:48:35;19.60;99.90
5009;DHT22;2523;51.058;6.922;2022-07-29T06:51:02;19.60;99.90
5009;DHT22;2523;51.058;6.922;2022-07-29T06:53:28;19.60;99.90
5009;DHT22;2523;51.058;6.922;2022-07-29T06:55:54;19.60;99.90
5009;DHT22;2523;51.058;6.922;2022-07-29T06:58:19;19.60;99.90
5009;DHT22;2523;51.058;6.922;2022-07-29T07:00:46;19.60;99.90
5009;DHT22;2523;51.058;6.922;2022-07-29T07:03:13;19.60;99.90
5009;DHT22;2523;51.058;6.922;2022-07-29T07:05:38;19.40;99.90
5009;DHT22;2523;51.058;6.922;2022-07-29T07:08:04;19.30;99.90
5009;DHT22;2523;51.058;6.922;2022-07-29T07:10:30;19.30;99.90
5009;DHT22;2523;51.058;6.922;2022-07-29T07:12:56;19.30;99.90
5009;DHT22;2523;51.058;6.922;2022-07-29T07:15:21;19.30;99.90
5009;DHT22;2523;51.058;6.922;2022-07-29T07:17:48;19.30;99.90
5009;DHT22;2523;51.058;6.922;2022-07-29T07:20:15;19.30;99.90
5009;DHT22;2523;51.058;6.922;2022-07-29T07:22:41;19.30;99.90
5009;DHT22;2523;51.058;6.922;2022-07-29T07:25:06;19.20;99.90
5009;DHT22;2523;51.058;6.922;2022-07-29T07:27:32;19.30;99.90
5009;DHT22;2523;51.058;6.922;2022-07-29T07:29:58;19.10;99.90
5009;DHT22;2523;51.058;6.922;2022-07-29T07:32:23;19.00;99.90
5009;DHT22;2523;51.058;6.922;2022-07-29T07:34:49;18.80;99.90
5009;DHT22;2523;51.058;6.922;2022-07-29T07:37:15;18.80;99.90
5009;DHT22;2523;51.058;6.922;2022-07-29T07:39:41;18.80;99.90
5009;DHT22;2523;51.058;6.922;2022-07-29T07:42:06;18.80;99.90
5009;DHT22;2523;51.058;6.922;2022-07-29T07:44:32;18.90;99.90
5009;DHT22;2523;51.058;6.922;2022-07-29T07:46:57;18.90;99.90
5009;DHT22;2523;51.058;6.922;2022-07-29T07:49:23;18.90;99.90
5009;DHT22;2523;51.058;6.922;2022-07-29T07:51:49;19.00;99.90
5009;DHT22;2523;51.058;6.922;2022-07-29T07:54:15;19.00;99.90
5009;DHT22;2523;51.058;6.922;2022-07-29T07:56:40;19.00;99.90
5009;DHT22;2523;51.058;6.922;2022-07-29T07:59:06;18.80;99.90
5009;DHT22;2523;51.058;6.922;2022-07-29T08:01:31;18.60;99.90
5009;DHT22;2523;51.058;6.922;2022-07-29T08:03:57;18.60;99.90
5009;DHT22;2523;51.058;6.922;2022-07-29T08:06:22;18.60;99.90
5009;DHT22;2523;51.058;6.922;2022-07-29T08:08:50;18.70;99.90
5009;DHT22;2523;51.058;6.922;2022-07-29T08:11:15;18.70;99.90
5009;DHT22;2523;51.058;6.922;2022-07-29T08:13:42;18.90;99.90
5009;DHT22;2523;51.058;6.922;2022-07-29T08:16:08;19.00;99.90
5009;DHT22;2523;51.058;6.922;2022-07-29T08:18:37;19.00;99.90
5009;DHT22;2523;51.058;6.922;2022-07-29T08:21:04;19.20;99.90
5009;DHT22;2523;51.058;6.922;2022-07-29T08:23:30;19.20;99.90
5009;DHT22;2523;51.058;6.922;2022-07-29T08:26:06;19.20;99.90
5009;DHT22;2523;51.058;6.922;2022-07-29T08:28:39;19.30;99.90
5009;DHT22;2523;51.058;6.922;2022-07-29T08:31:05;19.30;99.90
5009;DHT22;2523;51.058;6.922;2022-07-29T08:33:32;19.20;99.90
5009;DHT22;2523;51.058;6.922;2022-07-29T08:35:58;19.20;99.90
5009;DHT22;2523;51.058;6.922;2022-07-29T08:38:23;19.20;99.90
5009;DHT22;2523;51.058;6.922;2022-07-29T08:40:51;19.20;99.90
5009;DHT22;2523;51.058;6.922;2022-07-29T08:43:18;19.20;99.90
5009;DHT22;2523;51.058;6.922;2022-07-29T08:45:45;19.20;99.90
5009;DHT22;2523;51.058;6.922;2022-07-29T08:48:12;19.20;99.90
5009;DHT22;2523;51.058;6.922;2022-07-29T08:50:39;19.20;99.90
5009;DHT22;2523;51.058;6.922;2022-07-29T08:53:09;19.20;99.90
5009;DHT22;2523;51.058;6.922;2022-07-29T08:55:37;19.30;99.90
5009;DHT22;2523;51.058;6.922;2022-07-29T08:58:04;19.30;99.90
5009;DHT22;2523;51.058;6.922;2022-07-29T09:00:30;19.30;99.90
5009;DHT22;2523;51.058;6.922;2022-07-29T09:02:57;19.40;99.90
5009;DHT22;2523;51.058;6.922;2022-07-29T09:05:25;19.50;99.90
5009;DHT22;2523;51.058;6.922;2022-07-29T09:07:52;19.60;99.90
5009;DHT22;2523;51.058;6.922;2022-07-29T09:10:18;19.60;99.90
5009;DHT22;2523;51.058;6.922;2022-07-29T09:12:43;19.70;99.90
5009;DHT22;2523;51.058;6.922;2022-07-29T09:15:09;19.60;99.90
5009;DHT22;2523;51.058;6.922;2022-07-29T09:17:42;19.60;99.90
5009;DHT22;2523;51.058;6.922;2022-07-29T09:20:16;19.50;99.90
5009;DHT22;2523;51.058;6.922;2022-07-29T09:22:42;19.50;99.90
5009;DHT22;2523;51.058;6.922;2022-07-29T09:25:08;19.60;99.90
5009;DHT22;2523;51.058;6.922;2022-07-29T09:27:36;19.50;99.90
5009;DHT22;2523;51.058;6.922;2022-07-29T09:30:05;19.60;99.90
5009;DHT22;2523;51.058;6.922;2022-07-29T09:32:35;19.50;99.90
5009;DHT22;2523;51.058;6.922;2022-07-29T09:35:22;19.50;99.90
5009;DHT22;2523;51.058;6.922;2022-07-29T09:37:49;19.50;99.90
5009;DHT22;2523;51.058;6.922;2022-07-29T09:40:17;19.50;99.90
5009;DHT22;2523;51.058;6.922;2022-07-29T09:42:44;19.50;99.90
5009;DHT22;2523;51.058;6.922;2022-07-29T09:45:10;19.60;99.90
5009;DHT22;2523;51.058;6.922;2022-07-29T09:47:47;19.60;99.90
5009;DHT22;2523;51.058;6.922;2022-07-29T09:50:14;19.70;99.90
5009;DHT22;2523;51.058;6.922;2022-07-29T09:52:51;19.70;99.90
5009;DHT22;2523;51.058;6.922;2022-07-29T09:55:18;19.70;99.90
5009;DHT22;2523;51.058;6.922;2022-07-29T09:57:45;19.80;99.90
5009;DHT22;2523;51.058;6.922;2022-07-29T10:00:17;19.90;99.90
5009;DHT22;2523;51.058;6.922;2022-07-29T10:02:45;19.90;99.90
5009;DHT22;2523;51.058;6.922;2022-07-29T10:05:23;20.00;99.90
5009;DHT22;2523;51.058;6.922;2022-07-29T10:07:56;20.10;99.90
5009;DHT22;2523;51.058;6.922;2022-07-29T10:10:25;20.10;99.90
5009;DHT22;2523;51.058;6.922;2022-07-29T10:15:17;20.30;99.90
5009;DHT22;2523;51.058;6.922;2022-07-29T10:17:44;20.40;99.90
5009;DHT22;2523;51.058;6.922;2022-07-29T10:20:11;20.50;99.90
5009;DHT22;2523;51.058;6.922;2022-07-29T10:22:37;20.60;99.90
5009;DHT22;2523;51.058;6.922;2022-07-29T10:25:03;20.70;99.90
5009;DHT22;2523;51.058;6.922;2022-07-29T10:27:28;20.70;99.90
5009;DHT22;2523;51.058;6.922;2022-07-29T10:29:54;20.70;99.90
5009;DHT22;2523;51.058;6.922;2022-07-29T10:32:40;20.80;99.90
5009;DHT22;2523;51.058;6.922;2022-07-29T10:40:53;20.80;99.90
5009;DHT22;2523;51.058;6.922;2022-07-29T10:43:44;20.80;99.90
5009;DHT22;2523;51.058;6.922;2022-07-29T10:46:11;20.90;99.90
5009;DHT22;2523;51.058;6.922;2022-07-29T10:52:03;21.10;99.90
5009;DHT22;2523;51.058;6.922;2022-07-29T10:54:42;21.30;99.90
5009;DHT22;2523;51.058;6.922;2022-07-29T10:57:24;21.50;99.90
5009;DHT22;2523;51.058;6.922;2022-07-29T11:05:13;22.40;99.90
5009;DHT22;2523;51.058;6.922;2022-07-29T11:10:38;23.20;99.90
5009;DHT22;2523;51.058;6.922;2022-07-29T11:13:03;23.60;99.90
5009;DHT22;2523;51.058;6.922;2022-07-29T11:15:29;23.90;99.90
5009;DHT22;2523;51.058;6.922;2022-07-29T11:18:14;24.10;99.90
5009;DHT22;2523;51.058;6.922;2022-07-29T11:20:47;24.20;99.90
5009;DHT22;2523;51.058;6.922;2022-07-29T11:23:34;24.50;99.90
5009;DHT22;2523;51.058;6.922;2022-07-29T11:31:29;24.80;85.30
5009;DHT22;2523;51.058;6.922;2022-07-29T11:33:56;24.90;93.00
5009;DHT22;2523;51.058;6.922;2022-07-29T11:36:22;24.90;73.60
5009;DHT22;2523;51.058;6.922;2022-07-29T11:38:47;24.80;65.20
5009;DHT22;2523;51.058;6.922;2022-07-29T11:44:00;25.30;64.40
5009;DHT22;2523;51.058;6.922;2022-07-29T11:46:51;25.40;61.70
5009;DHT22;2523;51.058;6.922;2022-07-29T11:49:21;25.50;59.60
5009;DHT22;2523;51.058;6.922;2022-07-29T11:51:55;25.60;62.70
5009;DHT22;2523;51.058;6.922;2022-07-29T11:54:33;25.70;58.90
5009;DHT22;2523;51.058;6.922;2022-07-29T11:56:59;25.80;56.30
5009;DHT22;2523;51.058;6.922;2022-07-29T11:59:25;25.80;56.00
5009;DHT22;2523;51.058;6.922;2022-07-29T12:01:56;25.90;55.70
5009;DHT22;2523;51.058;6.922;2022-07-29T12:04:22;26.00;54.30
5009;DHT22;2523;51.058;6.922;2022-07-29T12:06:52;26.00;52.10
5009;DHT22;2523;51.058;6.922;2022-07-29T12:09:19;26.10;52.70
5009;DHT22;2523;51.058;6.922;2022-07-29T12:11:45;26.20;51.50
5009;DHT22;2523;51.058;6.922;2022-07-29T12:14:28;26.20;50.10
5009;DHT22;2523;51.058;6.922;2022-07-29T12:16:54;26.00;50.50
5009;DHT22;2523;51.058;6.922;2022-07-29T12:19:19;25.70;48.30
5009;DHT22;2523;51.058;6.922;2022-07-29T12:21:51;25.50;49.00
5009;DHT22;2523;51.058;6.922;2022-07-29T12:24:17;25.40;49.10
5009;DHT22;2523;51.058;6.922;2022-07-29T12:26:56;25.40;50.50
5009;DHT22;2523;51.058;6.922;2022-07-29T12:29:22;25.30;49.60
5009;DHT22;2523;51.058;6.922;2022-07-29T12:31:52;25.20;49.10
5009;DHT22;2523;51.058;6.922;2022-07-29T12:34:22;25.20;50.70
5009;DHT22;2523;51.058;6.922;2022-07-29T12:36:48;25.10;49.60
5009;DHT22;2523;51.058;6.922;2022-07-29T12:39:16;25.20;49.30
5009;DHT22;2523;51.058;6.922;2022-07-29T12:41:42;25.20;49.90
5009;DHT22;2523;51.058;6.922;2022-07-29T12:44:08;25.30;49.90
5009;DHT22;2523;51.058;6.922;2022-07-29T12:46:33;25.60;47.80
5009;DHT22;2523;51.058;6.922;2022-07-29T12:48:59;25.90;48.00
5009;DHT22;2523;51.058;6.922;2022-07-29T12:51:39;26.10;45.80
5009;DHT22;2523;51.058;6.922;2022-07-29T12:54:09;26.30;45.00
5009;DHT22;2523;51.058;6.922;2022-07-29T12:56:39;26.50;42.80
5009;DHT22;2523;51.058;6.922;2022-07-29T12:59:21;26.60;43.70
5009;DHT22;2523;51.058;6.922;2022-07-29T13:01:49;26.70;40.40
5009;DHT22;2523;51.058;6.922;2022-07-29T13:04:44;26.80;41.00
5009;DHT22;2523;51.058;6.922;2022-07-29T13:07:24;27.20;41.30
5009;DHT22;2523;51.058;6.922;2022-07-29T13:09:51;27.30;42.30
5009;DHT22;2523;51.058;6.922;2022-07-29T13:12:17;27.50;41.50
5009;DHT22;2523;51.058;6.922;2022-07-29T13:14:44;27.50;43.40
5009;DHT22;2523;51.058;6.922;2022-07-29T13:17:18;27.40;45.20
5009;DHT22;2523;51.058;6.922;2022-07-29T13:22:17;27.60;45.00
5009;DHT22;2523;51.058;6.922;2022-07-29T13:24:57;27.50;45.10
5009;DHT22;2523;51.058;6.922;2022-07-29T13:27:25;27.40;44.20
5009;DHT22;2523;51.058;6.922;2022-07-29T13:29:51;27.50;44.20
5009;DHT22;2523;51.058;6.922;2022-07-29T13:32:20;27.50;43.50
5009;DHT22;2523;51.058;6.922;2022-07-29T13:34:46;27.40;44.10
5009;DHT22;2523;51.058;6.922;2022-07-29T13:37:12;27.40;43.80
5009;DHT22;2523;51.058;6.922;2022-07-29T13:39:37;27.50;43.70
5009;DHT22;2523;51.058;6.922;2022-07-29T13:42:04;27.50;43.90
5009;DHT22;2523;51.058;6.922;2022-07-29T13:44:30;27.50;44.40
5009;DHT22;2523;51.058;6.922;2022-07-29T13:46:55;27.50;44.10
5009;DHT22;2523;51.058;6.922;2022-07-29T13:49:21;27.40;42.60
5009;DHT22;2523;51.058;6.922;2022-07-29T13:51:48;27.50;42.00
5009;DHT22;2523;51.058;6.922;2022-07-29T13:54:14;27.60;41.80
5009;DHT22;2523;51.058;6.922;2022-07-29T13:56:40;27.70;43.30
5009;DHT22;2523;51.058;6.922;2022-07-29T13:59:05;27.80;42.10
5009;DHT22;2523;51.058;6.922;2022-07-29T14:01:31;27.90;42.70
5009;DHT22;2523;51.058;6.922;2022-07-29T14:03:57;27.80;41.80
5009;DHT22;2523;51.058;6.922;2022-07-29T14:06:22;27.80;41.10
5009;DHT22;2523;51.058;6.922;2022-07-29T14:08:48;27.70;40.10
5009;DHT22;2523;51.058;6.922;2022-07-29T14:11:13;27.70;39.80
5009;DHT22;2523;51.058;6.922;2022-07-29T14:13:39;27.50;39.50
5009;DHT22;2523;51.058;6.922;2022-07-29T14:16:05;27.60;40.00
5009;DHT22;2523;51.058;6.922;2022-07-29T14:18:32;27.50;40.60
5009;DHT22;2523;51.058;6.922;2022-07-29T14:20:58;27.50;39.80
5009;DHT22;2523;51.058;6.922;2022-07-29T14:23:23;27.60;40.00
5009;DHT22;2523;51.058;6.922;2022-07-29T14:25:49;27.50;41.20
5009;DHT22;2523;51.058;6.922;2022-07-29T14:28:15;27.50;40.60
5009;DHT22;2523;51.058;6.922;2022-07-29T14:30:42;27.50;40.20
5009;DHT22;2523;51.058;6.922;2022-07-29T14:33:08;27.60;40.40
5009;DHT22;2523;51.058;6.922;2022-07-29T14:35:34;27.60;39.50
5009;DHT22;2523;51.058;6.922;2022-07-29T14:37:59;27.40;39.20
5009;DHT22;2523;51.058;6.922;2022-07-29T14:40:25;27.30;39.10
5009;DHT22;2523;51.058;6.922;2022-07-29T14:42:51;27.40;39.70
5009;DHT22;2523;51.058;6.922;2022-07-29T14:45:16;27.40;39.70
5009;DHT22;2523;51.058;6.922;2022-07-29T14:47:42;27.40;39.50
5009;DHT22;2523;51.058;6.922;2022-07-29T14:50:08;27.40;39.30
5009;DHT22;2523;51.058;6.922;2022-07-29T14:52:34;27.30;39.20
5009;DHT22;2523;51.058;6.922;2022-07-29T14:54:59;27.20;39.30
5009;DHT22;2523;51.058;6.922;2022-07-29T14:57:25;27.20;39.40
5009;DHT22;2523;51.058;6.922;2022-07-29T14:59:51;27.20;39.10
5009;DHT22;2523;51.058;6.922;2022-07-29T15:02:16;27.10;38.10
5009;DHT22;2523;51.058;6.922;2022-07-29T15:04:42;27.10;38.90
5009;DHT22;2523;51.058;6.922;2022-07-29T15:07:07;27.10;38.50
5009;DHT22;2523;51.058;6.922;2022-07-29T15:09:33;27.00;38.50
5009;DHT22;2523;51.058;6.922;2022-07-29T15:11:59;27.00;38.60
5009;DHT22;2523;51.058;6.922;2022-07-29T15:14:25;26.90;39.50
5009;DHT22;2523;51.058;6.922;2022-07-29T15:16:50;26.90;38.30
5009;DHT22;2523;51.058;6.922;2022-07-29T15:19:16;26.80;38.20
5009;DHT22;2523;51.058;6.922;2022-07-29T15:21:41;26.80;38.80
5009;DHT22;2523;51.058;6.922;2022-07-29T15:24:07;26.60;37.30
5009;DHT22;2523;51.058;6.922;2022-07-29T15:26:33;26.40;37.40
5009;DHT22;2523;51.058;6.922;2022-07-29T15:28:59;26.30;37.20
5009;DHT22;2523;51.058;6.922;2022-07-29T15:31:25;26.20;37.90
5009;DHT22;2523;51.058;6.922;2022-07-29T15:33:50;26.20;38.00
5009;DHT22;2523;51.058;6.922;2022-07-29T15:36:16;26.10;38.00
5009;DHT22;2523;51.058;6.922;2022-07-29T15:38:41;25.90;36.90
5009;DHT22;2523;51.058;6.922;2022-07-29T15:41:07;25.70;37.10
5009;DHT22;2523;51.058;6.922;2022-07-29T15:43:33;25.60;37.90
5009;DHT22;2523;51.058;6.922;2022-07-29T15:46:00;25.50;38.30
5009;DHT22;2523;51.058;6.922;2022-07-29T15:48:44;25.50;38.50
5009;DHT22;2523;51.058;6.922;2022-07-29T15:51:10;25.60;37.70
5009;DHT22;2523;51.058;6.922;2022-07-29T15:53:36;25.70;38.50
5009;DHT22;2523;51.058;6.922;2022-07-29T15:56:01;25.70;38.30
5009;DHT22;2523;51.058;6.922;2022-07-29T15:58:27;25.60;37.40
5009;DHT22;2523;51.058;6.922;2022-07-29T16:00:53;25.70;37.90
5009;DHT22;2523;51.058;6.922;2022-07-29T16:03:18;25.80;37.10
5009;DHT22;2523;51.058;6.922;2022-07-29T16:05:45;25.70;38.30
5009;DHT22;2523;51.058;6.922;2022-07-29T16:08:10;25.70;38.50
5009;DHT22;2523;51.058;6.922;2022-07-29T16:10:36;25.60;37.80
5009;DHT22;2523;51.058;6.922;2022-07-29T16:13:01;25.60;37.80
5009;DHT22;2523;51.058;6.922;2022-07-29T16:15:27;25.60;38.50
5009;DHT22;2523;51.058;6.922;2022-07-29T16:17:52;25.50;38.10
5009;DHT22;2523;51.058;6.922;2022-07-29T16:20:18;25.40;37.90
5009;DHT22;2523;51.058;6.922;2022-07-29T16:22:45;25.20;38.90
5009;DHT22;2523;51.058;6.922;2022-07-29T16:25:10;25.10;38.30
5009;DHT22;2523;51.058;6.922;2022-07-29T16:27:36;25.00;37.60
5009;DHT22;2523;51.058;6.922;2022-07-29T16:30:03;24.90;38.70
5009;DHT22;2523;51.058;6.922;2022-07-29T16:32:29;24.80;39.40
5009;DHT22;2523;51.058;6.922;2022-07-29T16:34:54;24.80;39.30
5009;DHT22;2523;51.058;6.922;2022-07-29T16:37:20;24.70;39.70
5009;DHT22;2523;51.058;6.922;2022-07-29T16:39:46;24.70;40.70
5009;DHT22;2523;51.058;6.922;2022-07-29T16:42:11;24.70;40.10
5009;DHT22;2523;51.058;6.922;2022-07-29T16:44:37;24.70;40.10